Les Masies de Roda





Hora UTC 23:25
Temperatura 7.2 ºC
Sòl 15 cm 3.2 ºC
Subsòl 10 cm 10.0 ºC
Humitat 89.8 %
Pressió 1025.4 hPa
Pluja 0.0 mm
Velocitat vent 0.0 km/h
Direcció vent NNE
Radiació solar 0.1 W/m²

Dades diàries 2020-04-07



Hora UTC (hivern +1h; estiu +2h)
Temperatura (ºC) Humitat (%) Pressió (hPa) Velocitat vent (km/h) Precipitació (mm) Radiació solar (W/m²)
Hora UTC Aire Sòl 15 cm Subsòl 10 cm Humitat Pressió Vel. Dir. Vel. Max Dir. Intent. màx 5 min. Rad. Sol.
00:05 7.3 4.6 9.8 91.4 1024.6 0.0 NNE 0.0 S 0.0 0.1
00:10 7.2 4.5 9.8 91.1 1024.6 0.0 NNE 0.0 WSW 0.0 0.1
00:15 7.2 4.5 9.7 90.6 1024.7 0.0 NNE 0.0 WSW 0.0 0.1
00:20 7.4 4.4 9.7 89.5 1024.7 0.0 NNE 0.0 WSW 0.0 0.1
00:25 7.4 4.3 9.7 89.2 1024.6 0.0 NNE 0.0 WSW 0.0 0.1
00:30 7.4 4.3 9.7 88.4 1024.6 0.0 NNE 0.0 ESE 0.0 0.1
00:35 7.4 4.2 9.7 88.4 1024.7 0.0 NNE 0.0 ESE 0.0 0.1
00:40 7.2 4.1 9.6 88.8 1024.7 0.0 NNE 0.0 ESE 0.0 0.1
00:45 7.2 4.0 9.6 89.1 1024.6 0.0 NNE 0.0 SE 0.0 0.1
00:50 7.1 3.9 9.6 89.2 1024.6 0.0 NNE 0.0 SE 0.0 0.1
00:55 6.9 3.8 9.5 89.2 1024.6 0.0 NNE 0.0 SE 0.0 0.1
01:00 6.9 3.6 9.5 89.9 1024.6 0.0 NNE 0.0 SE 0.0 0.1
01:05 6.8 3.5 9.4 89.8 1024.6 0.0 NNE 0.0 SE 0.0 0.1
01:10 6.8 3.4 9.4 89.5 1024.5 0.0 NNE 0.0 ENE 0.0 0.1
01:15 6.7 3.4 9.4 89.1 1024.5 0.0 NNE 0.0 NE 0.0 0.1
01:20 6.5 3.4 9.4 89.0 1024.4 0.0 NNE 0.0 NE 0.0 0.1
01:25 6.1 3.4 9.3 90.1 1024.4 0.0 NNE 0.0 NE 0.0 0.1
01:30 6.2 3.3 9.3 91.7 1024.3 0.0 NNE 0.0 NE 0.0 0.1
01:35 6.0 3.3 9.2 91.5 1024.3 0.1 NW 3.4 NW 0.0 0.1
01:40 5.7 3.2 9.2 92.0 1024.3 0.0 NNE 0.0 NNW 0.0 0.1
01:45 5.6 3.2 9.2 92.9 1024.3 0.0 NNE 0.0 WNW 0.0 0.1
01:50 5.8 3.1 9.2 93.5 1024.3 0.0 NNE 0.0 WNW 0.0 0.1
01:55 5.9 3.1 9.2 93.8 1024.3 0.0 NNE 0.0 SW 0.0 0.1
02:00 6.0 3.1 9.2 93.4 1024.3 0.0 NNE 0.0 SW 0.0 0.1
02:05 6.0 3.1 9.1 93.2 1024.3 0.0 NNE 0.0 SW 0.0 0.1
02:10 6.0 3.0 9.1 93.0 1024.3 0.0 NNE 0.0 SW 0.0 0.1
02:15 6.0 3.0 9.1 93.2 1024.3 0.0 NNE 0.0 SW 0.0 0.1
02:20 6.0 2.9 9.0 93.3 1024.3 0.0 NNE 0.0 SW 0.0 0.1
02:25 5.9 2.8 9.0 92.9 1024.3 0.0 NNE 0.0 SW 0.0 0.1
02:30 5.9 2.8 9.0 92.8 1024.3 0.0 NNE 0.0 ESE 0.0 0.1
02:35 5.8 2.8 9.0 92.2 1024.2 0.0 NNE 0.0 E 0.0 0.1
02:40 5.6 2.7 9.0 92.5 1024.2 0.0 NNE 0.0 E 0.0 0.1
02:45 5.6 2.7 8.9 93.0 1024.2 0.0 NNE 0.0 ENE 0.0 0.1
02:50 5.6 2.6 8.9 93.2 1024.2 0.0 NNE 0.0 NE 0.0 0.1
02:55 5.6 2.6 8.8 93.2 1024.1 0.0 NNE 0.0 NE 0.0 0.1
03:00 5.5 2.5 8.8 93.0 1024.1 0.0 NNE 0.0 NE 0.0 0.1
03:05 5.2 2.3 8.7 92.8 1024.0 0.0 NNE 0.0 NE 0.0 0.1
03:10 5.2 2.2 8.7 93.5 1024.0 0.0 NNE 0.0 NE 0.0 0.1
03:15 5.4 2.1 8.7 93.9 1023.9 0.0 NNE 0.0 NE 0.0 0.1
03:20 5.3 2.0 8.6 93.7 1023.9 0.0 NNE 0.0 NE 0.0 0.1
03:25 5.1 2.0 8.6 93.4 1023.9 0.0 NNE 0.0 NE 0.0 0.1
03:30 5.0 1.9 8.5 93.8 1024.0 0.0 NNE 0.0 NW 0.0 0.1
03:35 5.1 1.9 8.5 94.4 1024.0 0.0 NNE 0.0 WNW 0.0 0.1
03:40 5.1 1.9 8.5 94.6 1024.0 0.0 NNE 0.0 WNW 0.0 0.1
03:45 5.1 2.0 8.5 94.8 1024.0 0.0 NNE 0.0 WNW 0.0 0.1
03:50 5.1 2.1 8.5 94.8 1024.1 0.0 NNE 0.0 WNW 0.0 0.1
03:55 5.3 2.2 8.5 94.9 1024.1 0.0 NNE 0.0 WNW 0.0 0.1
04:00 5.4 2.4 8.5 95.0 1024.1 0.0 NNE 0.0 WNW 0.0 0.1
04:05 5.5 2.6 8.5 94.1 1024.1 0.0 NNE 0.0 E 0.0 0.1
04:10 5.5 2.8 8.5 93.3 1024.1 0.0 NNE 0.0 E 0.0 0.1
04:15 5.5 3.0 8.5 93.3 1024.1 0.0 NNE 0.0 E 0.0 0.1
04:20 5.5 3.1 8.5 93.6 1024.1 0.0 NNE 0.0 E 0.0 0.1
04:25 5.5 3.2 8.5 93.6 1024.1 0.0 NNE 0.0 ENE 0.0 0.1
04:30 5.4 3.2 8.5 93.6 1024.2 0.0 NNE 0.0 ENE 0.0 0.1
04:35 5.3 3.3 8.5 93.5 1024.3 0.0 NNE 0.0 ENE 0.0 0.1
04:40 5.2 3.3 8.5 93.9 1024.3 0.0 NNE 0.0 ENE 0.0 0.1
04:45 5.3 3.3 8.4 94.5 1024.3 0.0 NNE 0.0 ENE 0.0 0.1
04:50 5.3 3.3 8.4 94.7 1024.3 0.0 NNE 0.0 ENE 0.0 0.1
04:55 5.3 3.4 8.4 94.9 1024.2 0.0 NNE 0.0 ENE 0.0 0.1
05:00 5.3 3.4 8.4 95.0 1024.2 0.0 NNE 0.0 ENE 0.0 0.1
05:05 5.4 3.5 8.4 95.2 1024.2 0.0 NNE 0.0 ENE 0.0 0.2
05:10 5.5 3.6 8.4 95.2 1024.2 0.0 NNE 0.0 ENE 0.0 0.5
05:15 5.4 3.7 8.4 95.0 1024.3 0.0 NNE 0.0 ENE 0.0 1.5
05:20 5.5 3.7 8.4 95.0 1024.3 0.0 NNE 0.0 ENE 0.0 4.6
05:25 5.5 3.8 8.4 95.0 1024.4 0.0 NNE 0.0 ENE 0.0 9.1
05:30 5.5 3.9 8.4 95.0 1024.3 0.0 NNE 0.0 ENE 0.0 18.4
05:35 5.5 4.0 8.4 95.0 1024.4 0.0 NNE 0.0 ENE 0.0 16.3
05:40 5.5 4.1 8.5 95.0 1024.4 0.0 NNE 0.0 ENE 0.0 19.1
05:45 5.5 4.2 8.5 95.2 1024.5 0.0 NNE 0.0 ENE 0.0 27.6
05:50 5.6 4.4 8.5 95.4 1024.5 0.0 NNE 0.0 ENE 0.0 39.4
05:55 5.8 4.7 8.5 95.7 1024.5 0.0 NNE 0.0 ENE 0.0 58.4
06:00 6.0 5.0 8.6 95.8 1024.6 0.0 NNE 0.0 ENE 0.0 65.3
06:05 6.1 5.3 8.6 95.7 1024.6 0.0 NNE 0.0 ENE 0.0 74.2
06:10 6.2 5.6 8.6 95.3 1024.6 0.0 NNE 0.0 NE 0.0 72.2
06:15 6.4 5.9 8.7 94.2 1024.7 0.0 NNE 0.0 NE 0.0 72.5
06:20 6.7 6.3 8.7 92.5 1024.8 0.0 NNE 0.0 NE 0.0 78.1
06:25 7.0 6.6 8.8 91.5 1024.8 0.0 NNE 0.0 E 0.0 77.1
06:30 7.1 6.9 8.8 92.0 1024.8 0.0 NNE 0.0 NNE 0.0 75.8
06:35 7.1 7.1 8.8 91.8 1024.8 0.0 NNE 0.0 NW 0.0 79.4
06:40 7.3 7.3 8.9 92.0 1024.9 0.0 NNE 0.0 NW 0.0 85.6
06:45 7.3 7.5 8.9 91.5 1025.0 0.0 NNE 0.0 NW 0.0 92.4
06:50 7.5 7.7 8.9 90.5 1025.0 0.0 NNE 0.0 WNW 0.0 99.3
06:55 7.6 7.9 9.0 89.3 1025.0 0.0 NNE 0.0 WNW 0.0 107.4
07:00 7.8 8.2 9.0 87.1 1025.1 0.0 NNE 0.0 WSW 0.0 115.3
07:05 7.9 8.4 9.1 86.3 1025.1 0.0 NNE 0.0 WSW 0.0 123.1
07:10 7.9 8.5 9.1 86.1 1025.1 0.0 NNE 0.0 W 0.0 131.6
07:15 8.1 8.7 9.2 86.9 1025.1 0.0 NNE 0.0 WNW 0.0 140.7
07:20 8.2 9.0 9.2 87.1 1025.2 0.0 NNE 0.0 W 0.0 151.6
07:25 8.3 9.2 9.3 86.1 1025.2 0.0 NNE 0.0 WSW 0.0 164.0
07:30 8.4 9.6 9.3 84.9 1025.3 0.0 NNE 0.0 NW 0.0 173.5
07:35 8.6 9.8 9.4 84.2 1025.3 0.0 NNE 0.0 WNW 0.0 182.3
07:40 8.8 10.2 9.4 83.7 1025.3 0.0 NNE 0.0 WNW 0.0 193.0
07:45 8.9 10.6 9.5 83.1 1025.3 0.0 NNE 0.0 WNW 0.0 207.8
07:50 9.1 11.0 9.6 82.7 1025.3 0.0 NNE 0.0 NW 0.0 223.8
07:55 9.3 11.4 9.6 81.5 1025.3 0.0 NNE 0.0 WNW 0.0 239.8
08:00 9.5 11.8 9.7 80.5 1025.3 0.0 NNE 0.0 WNW 0.0 255.5
08:05 9.9 12.4 9.8 78.2 1025.3 0.0 NNE 0.0 WNW 0.0 267.5
08:10 10.0 13.0 9.9 75.9 1025.3 0.0 NNE 0.0 NNE 0.0 283.1
08:15 10.4 13.5 10.0 76.0 1025.3 0.1 NW 3.4 NW 0.0 292.6
08:20 10.4 13.9 10.1 75.9 1025.3 0.4 NW 3.4 NW 0.0 307.1
08:25 10.7 14.3 10.1 74.5 1025.4 0.0 NNE 0.0 WNW 0.0 340.7
08:30 11.0 14.8 10.2 72.4 1025.4 0.0 NNE 0.0 WNW 0.0 356.2
08:35 11.3 15.4 10.4 73.0 1025.4 0.0 NNE 0.0 W 0.0 396.1
08:40 11.7 16.0 10.5 72.2 1025.4 1.2 W 6.1 W 0.0 393.8
08:45 11.6 16.4 10.6 72.4 1025.5 2.8 W 8.8 W 0.0 373.8
08:50 12.0 16.7 10.7 71.2 1025.5 1.2 WSW 6.1 WSW 0.0 369.8
08:55 12.0 17.0 10.8 66.9 1025.6 2.8 SW 8.8 SW 0.0 391.4
09:00 12.2 17.5 10.9 68.8 1025.6 3.1 SW 8.8 SSW 0.0 465.7
09:05 12.6 18.2 11.1 66.7 1025.6 1.2 SW 6.1 WSW 0.0 516.2
09:10 12.9 19.2 11.2 63.4 1025.6 0.4 SE 3.4 SE 0.0 554.3
09:15 13.4 20.0 11.3 61.6 1025.6 0.0 W 3.4 W 0.0 551.8
09:20 14.1 20.7 11.4 56.0 1025.6 0.0 NNE 0.0 S 0.0 551.5
09:25 14.3 21.3 11.5 53.5 1025.6 1.7 SE 8.8 ESE 0.0 557.0
09:30 14.3 22.0 11.7 53.4 1025.6 0.7 S 6.1 SSE 0.0 559.8
09:35 14.8 22.4 11.8 53.3 1025.5 0.1 E 3.4 SSW 0.0 556.9
09:40 14.8 22.7 12.0 52.3 1025.5 1.0 E 6.1 ENE 0.0 568.4
09:45 14.8 23.3 12.0 52.0 1025.5 2.8 NE 6.1 ENE 0.0 578.5
09:50 15.1 23.6 12.2 53.9 1025.4 0.5 N 8.8 S 0.0 592.5
09:55 15.7 24.0 12.2 46.8 1025.4 0.9 S 6.1 S 0.0 641.1
10:00 16.2 24.5 12.4 49.9 1025.4 4.7 SW 11.5 SSE 0.0 595.2
10:05 16.2 24.7 12.5 51.5 1025.4 6.4 W 11.5 WNW 0.0 567.0
10:10 16.3 24.7 12.6 47.2 1025.4 4.0 S 11.5 S 0.0 576.5
10:15 16.3 25.0 12.7 46.5 1025.4 3.9 SSW 11.5 SSW 0.0 697.8
10:20 16.6 25.6 12.9 46.7 1025.4 5.4 S 8.8 SSE 0.0 695.7
10:25 16.4 25.5 13.1 47.7 1025.3 4.6 SSW 8.8 S 0.0 441.4
10:30 16.4 24.5 13.0 50.1 1025.3 4.8 WSW 8.8 WSW 0.0 409.8
10:35 16.4 23.6 13.0 50.2 1025.3 4.3 SSW 11.5 SW 0.0 389.3
10:40 16.5 23.3 13.0 47.6 1025.3 1.8 N 6.1 SW 0.0 426.3
10:45 16.6 23.5 13.0 51.0 1025.2 4.1 WNW 8.8 WNW 0.0 591.0
10:50 16.8 24.1 13.1 49.9 1025.2 6.0 WSW 11.5 WNW 0.0 587.4
10:55 16.9 24.6 13.3 50.8 1025.1 5.8 NW 11.5 NW 0.0 472.3
11:00 16.8 24.3 13.2 50.3 1025.1 4.2 NW 8.8 NW 0.0 401.4
11:05 16.8 24.0 13.2 52.9 1025.0 7.1 NW 14.2 NW 0.0 438.1
11:10 16.7 23.6 13.1 52.3 1025.0 7.5 NNW 14.2 NW 0.0 444.3
11:15 16.6 23.3 13.1 53.5 1025.0 6.4 NW 11.5 NNW 0.0 435.2
11:20 16.9 23.4 13.1 52.7 1024.9 5.2 NW 11.5 NW 0.0 437.6
11:25 16.9 23.5 13.2 51.8 1024.9 5.6 NW 11.5 NNW 0.0 465.1
11:30 17.0 23.8 13.3 52.2 1024.8 3.6 NW 8.8 NNE 0.0 477.4
11:35 17.4 24.0 13.4 54.4 1024.8 5.9 WNW 14.2 WNW 0.0 458.4
11:40 17.4 24.0 13.5 51.6 1024.8 9.2 W 19.6 W 0.0 425.3
11:45 17.3 24.0 13.6 51.1 1024.8 6.8 WNW 11.5 W 0.0 477.7
11:50 17.2 23.8 13.6 53.2 1024.8 10.3 W 16.9 W 0.0 433.1
11:55 17.1 23.5 13.7 53.3 1024.8 7.5 WSW 14.2 W 0.0 390.8
12:00 17.1 23.2 13.7 51.7 1024.8 6.9 WSW 14.2 W 0.0 361.6
12:05 17.1 22.8 13.7 50.1 1024.8 6.7 W 11.5 W 0.0 346.2
12:10 17.2 22.5 13.7 49.8 1024.7 3.0 NW 8.8 WNW 0.0 331.9
12:15 17.2 22.2 13.7 52.1 1024.7 7.0 WNW 14.2 WNW 0.0 324.0
12:20 17.0 21.9 13.6 55.3 1024.7 10.6 WNW 16.9 W 0.0 319.0
12:25 16.9 21.6 13.6 55.5 1024.7 6.9 WNW 14.2 WNW 0.0 327.1
12:30 17.1 21.8 13.6 56.3 1024.6 3.5 NW 8.8 WNW 0.0 362.8
12:35 17.4 22.1 13.7 56.4 1024.6 6.4 W 11.5 NW 0.0 390.8
12:40 17.4 22.4 13.8 55.7 1024.6 8.7 WNW 14.2 NW 0.0 375.3
12:45 17.3 22.4 13.8 56.0 1024.6 7.5 WNW 14.2 WNW 0.0 371.3
12:50 17.5 22.7 13.8 56.6 1024.5 7.8 WNW 11.5 W 0.0 424.5
12:55 17.6 23.1 13.9 54.8 1024.5 9.5 NW 22.3 NW 0.0 468.7
13:00 17.7 23.6 13.9 55.9 1024.4 9.9 WNW 16.9 WNW 0.0 671.9
13:05 18.1 25.4 14.1 53.7 1024.4 7.8 NW 16.9 WNW 0.0 731.8
13:10 18.3 26.4 14.4 54.1 1024.3 8.8 WNW 14.2 WNW 0.0 714.0
13:15 18.3 27.3 14.5 53.4 1024.2 10.7 NNW 19.6 NW 0.0 653.3
13:20 18.1 27.0 14.6 54.7 1024.2 12.4 NW 19.6 W 0.0 611.1
13:25 18.1 26.6 14.6 55.2 1024.2 15.8 WNW 22.3 W 0.0 665.7
13:30 18.0 26.5 14.7 55.9 1024.2 13.1 NW 22.3 NW 0.0 643.0
13:35 18.0 26.5 14.7 55.5 1024.1 13.6 WNW 22.3 WNW 0.0 595.1
13:40 18.0 26.1 14.8 56.0 1024.1 9.9 WNW 16.9 WNW 0.0 424.5
13:45 17.7 25.2 14.8 55.6 1024.1 11.5 NW 19.6 NNW 0.0 365.7
13:50 17.5 24.2 14.6 56.6 1024.0 14.6 NW 22.3 WNW 0.0 516.6
13:55 17.8 24.5 14.6 56.9 1024.0 11.8 WNW 19.6 NW 0.0 572.9
14:00 18.0 24.6 14.7 55.7 1024.0 9.3 W 14.2 WNW 0.0 357.6
14:05 17.7 24.0 14.7 55.3 1023.9 6.7 NW 11.5 WSW 0.0 304.1
14:10 17.6 23.3 14.7 55.8 1023.9 6.1 W 14.2 W 0.0 268.4
14:15 17.6 22.6 14.6 55.9 1023.9 3.9 WSW 11.5 WSW 0.0 270.7
14:20 17.6 22.3 14.6 57.2 1023.9 8.0 W 14.2 W 0.0 285.2
14:25 17.5 21.9 14.5 57.0 1023.8 8.6 WNW 16.9 W 0.0 236.1
14:30 17.0 21.0 14.5 58.1 1023.8 15.7 WNW 22.3 NW 0.0 212.6
14:35 16.5 20.0 14.3 59.7 1023.9 13.8 WNW 25.0 WNW 0.0 200.4
14:40 16.3 19.3 14.2 59.1 1023.9 14.6 WNW 22.3 WNW 0.0 188.9
14:45 16.2 18.6 14.1 60.5 1023.9 13.1 WNW 19.6 W 0.0 180.8
14:50 16.1 18.2 14.0 60.7 1023.9 10.9 WNW 16.9 NW 0.0 177.0
14:55 16.1 17.9 14.0 61.1 1023.9 11.0 WNW 19.6 NW 0.0 169.1
15:00 15.9 17.6 13.9 61.0 1023.9 11.8 WNW 16.9 WNW 0.0 163.2
15:05 15.9 17.4 13.8 62.2 1023.9 10.4 WNW 19.6 NW 0.0 162.8
15:10 15.9 17.3 13.8 62.6 1023.9 11.0 WNW 16.9 WNW 0.0 172.9
15:15 16.0 17.3 13.8 62.9 1023.9 7.8 NW 16.9 NW 0.0 189.5
15:20 16.1 17.5 13.8 63.2 1023.8 10.1 WNW 19.6 WNW 0.0 211.0
15:25 16.1 17.8 13.8 63.3 1023.8 9.3 WNW 16.9 NW 0.0 234.9
15:30 16.2 18.1 13.8 62.6 1023.7 10.3 WNW 16.9 W 0.0 264.6
15:35 16.3 18.6 13.9 63.0 1023.7 9.3 WNW 16.9 W 0.0 263.5
15:40 16.3 18.9 13.9 62.3 1023.7 11.6 WNW 16.9 WNW 0.0 250.7
15:45 16.2 18.9 13.9 62.7 1023.7 9.1 WNW 14.2 NW 0.0 233.5
15:50 16.3 19.0 13.9 63.0 1023.7 9.0 WNW 16.9 W 0.0 225.1
15:55 16.2 18.9 14.0 61.6 1023.7 10.4 WNW 16.9 WNW 0.0 222.5
16:00 16.1 18.7 13.9 62.0 1023.7 11.1 WNW 16.9 NW 0.0 222.0
16:05 16.1 18.6 13.9 62.9 1023.7 9.6 WNW 16.9 WNW 0.0 222.3
16:10 16.1 18.5 13.9 62.5 1023.7 10.1 WNW 14.2 NW 0.0 220.3
16:15 16.1 18.6 13.9 63.0 1023.8 8.6 WNW 14.2 WNW 0.0 223.6
16:20 16.2 18.6 13.9 62.6 1023.8 9.0 WNW 14.2 WNW 0.0 218.2
16:25 16.2 18.6 13.9 62.9 1023.8 9.7 WNW 14.2 NW 0.0 193.9
16:30 16.0 18.3 13.9 61.9 1023.8 7.9 NW 16.9 NW 0.0 183.5
16:35 16.1 18.2 13.8 63.8 1023.8 7.1 WNW 14.2 WNW 0.0 206.0
16:40 16.2 18.1 13.8 62.3 1023.8 7.8 NW 11.5 WNW 0.0 187.0
16:45 16.1 18.0 13.8 61.7 1023.8 5.7 WNW 11.5 WNW 0.0 157.2
16:50 16.1 17.7 13.8 62.8 1023.8 8.2 WNW 14.2 WNW 0.0 146.3
16:55 15.9 17.4 13.7 63.0 1023.8 6.9 WNW 11.5 WNW 0.0 137.2
17:00 15.9 17.0 13.7 63.3 1023.8 5.5 WNW 8.8 WNW 0.0 124.1
17:05 15.8 16.7 13.6 62.5 1023.8 6.5 NW 8.8 W 0.0 109.2
17:10 15.7 16.4 13.6 63.9 1023.8 5.7 WNW 11.5 WNW 0.0 96.8
17:15 15.6 16.0 13.5 63.9 1023.8 6.4 WNW 11.5 NW 0.0 82.7
17:20 15.5 15.7 13.5 65.4 1023.9 6.3 WNW 8.8 W 0.0 70.8
17:25 15.3 15.3 13.5 66.9 1023.9 5.7 WNW 8.8 W 0.0 62.5
17:30 15.2 15.0 13.4 66.2 1023.9 5.2 WNW 11.5 WNW 0.0 56.6
17:35 15.1 14.8 13.4 67.7 1024.0 4.5 WNW 8.8 WNW 0.0 49.4
17:40 15.0 14.5 13.4 66.4 1024.0 0.9 WNW 6.1 WNW 0.0 49.1
17:45 15.0 14.3 13.3 66.1 1024.0 0.0 NNE 0.0 WNW 0.0 46.9
17:50 14.9 14.1 13.3 66.9 1024.0 0.0 NNE 0.0 WNW 0.0 46.3
17:55 14.8 13.8 13.3 67.1 1024.0 0.0 NNE 0.0 W 0.0 42.7
18:00 14.7 13.4 13.2 67.1 1024.1 1.3 SW 11.5 SW 0.0 36.0
18:05 14.7 13.1 13.1 65.4 1024.1 8.2 SW 14.2 SW 0.0 28.2
18:10 14.7 12.8 13.0 64.7 1024.1 8.0 WSW 14.2 SSW 0.0 21.3
18:15 14.4 12.5 13.0 63.8 1024.2 8.4 SW 14.2 SW 0.0 15.4
18:20 14.3 12.2 12.9 63.7 1024.2 6.5 SW 14.2 SSW 0.0 9.1
18:25 14.1 11.7 12.8 64.3 1024.2 3.9 WSW 11.5 WSW 0.0 5.3
18:30 13.8 11.3 12.7 65.6 1024.2 4.0 WSW 8.8 SW 0.0 3.0
18:35 13.6 10.8 12.7 66.3 1024.3 3.4 WSW 8.8 SW 0.0 1.2
18:40 13.5 10.3 12.6 66.4 1024.3 2.0 SW 8.8 SW 0.0 0.5
18:45 13.4 9.9 12.5 66.5 1024.4 4.5 SW 8.8 SSW 0.0 0.2
18:50 13.2 9.7 12.5 67.2 1024.4 2.4 SW 8.8 WSW 0.0 0.1
18:55 13.1 9.4 12.4 67.8 1024.4 3.5 SW 8.8 S 0.0 0.1
19:00 13.0 9.2 12.4 68.3 1024.4 4.4 SSW 8.8 SSW 0.0 0.1
19:05 13.0 9.0 12.3 68.5 1024.5 6.3 SSW 8.8 S 0.0 0.1
19:10 12.9 8.9 12.2 69.1 1024.5 5.8 S 8.8 SSW 0.0 0.1
19:15 12.8 8.8 12.2 69.5 1024.6 5.4 SSW 11.5 SSW 0.0 0.1
19:20 12.8 8.7 12.1 69.8 1024.6 6.2 SSW 11.5 SSW 0.0 0.1
19:25 12.7 8.7 12.1 70.5 1024.7 5.4 SSW 8.8 SSW 0.0 0.1
19:30 12.6 8.6 12.1 70.7 1024.7 3.8 SW 6.1 SSW 0.0 0.1
19:35 12.5 8.3 12.0 71.7 1024.8 3.0 SW 6.1 SW 0.0 0.1
19:40 12.1 8.1 12.0 74.1 1024.8 2.4 SSW 6.1 SW 0.0 0.1
19:45 11.9 7.8 11.9 73.9 1024.8 4.7 SSW 8.8 SSW 0.0 0.1
19:50 12.1 7.6 11.8 72.7 1024.8 5.3 SSW 8.8 S 0.0 0.1
19:55 12.2 7.6 11.8 71.8 1024.9 5.9 SSW 11.5 SW 0.0 0.1
20:00 12.3 7.8 11.8 71.4 1024.9 5.8 SSW 11.5 S 0.0 0.1
20:05 12.2 8.0 11.7 71.7 1024.9 5.9 SSW 8.8 SSW 0.0 0.1
20:10 12.2 8.2 11.7 71.5 1024.9 5.5 SSW 8.8 SSW 0.0 0.1
20:15 12.2 8.4 11.7 71.6 1025.0 4.9 SSW 8.8 SSW 0.0 0.1
20:20 12.1 8.5 11.7 72.1 1025.0 5.5 SSW 8.8 S 0.0 0.1
20:25 12.0 8.6 11.7 72.2 1025.0 5.3 SSW 8.8 SSW 0.0 0.1
20:30 12.0 8.6 11.7 72.5 1025.0 4.4 SSW 6.1 SSW 0.0 0.1
20:35 11.8 8.4 11.7 73.4 1025.0 2.0 SSW 6.1 SW 0.0 0.1
20:40 11.6 8.0 11.6 75.3 1025.0 0.0 NNE 0.0 S 0.0 0.1
20:45 11.4 7.6 11.6 75.4 1025.0 0.4 SSW 6.1 SSW 0.0 0.1
20:50 11.4 7.3 11.5 75.1 1025.0 5.1 SSW 8.8 SW 0.0 0.1
20:55 11.4 7.0 11.4 75.3 1025.1 3.0 SSW 6.1 S 0.0 0.1
21:00 11.3 6.8 11.4 75.4 1025.1 0.4 SW 6.1 SW 0.0 0.1
21:05 11.2 6.5 11.3 75.9 1025.1 0.9 SW 6.1 WSW 0.0 0.1
21:10 11.1 6.3 11.3 76.2 1025.1 1.3 WSW 6.1 SW 0.0 0.1
21:15 10.9 6.1 11.2 76.8 1025.2 4.6 SW 6.1 SW 0.0 0.1
21:20 10.6 6.0 11.2 78.3 1025.2 0.6 SW 6.1 SW 0.0 0.1
21:25 10.3 5.9 11.1 79.7 1025.2 0.0 NNE 0.0 SW 0.0 0.1
21:30 10.2 5.8 11.1 80.1 1025.2 0.0 NNE 0.0 SW 0.0 0.1
21:35 9.9 5.6 11.0 80.8 1025.2 0.0 NNE 0.0 SSW 0.0 0.1
21:40 9.8 5.4 11.0 82.3 1025.2 0.0 NNE 0.0 WSW 0.0 0.1
21:45 9.6 5.2 10.9 82.4 1025.2 0.0 NNE 0.0 WSW 0.0 0.1
21:50 9.3 5.1 10.9 83.5 1025.2 0.0 NNE 0.0 WSW 0.0 0.1
21:55 9.1 5.0 10.8 84.5 1025.1 0.0 NNE 0.0 WSW 0.0 0.1
22:00 9.0 4.9 10.8 85.2 1025.1 0.0 NNE 0.0 WSW 0.0 0.1
22:05 8.9 4.9 10.7 85.1 1025.1 0.0 NNE 0.0 WSW 0.0 0.1
22:10 8.6 4.9 10.7 86.4 1025.1 0.0 NNE 0.0 WSW 0.0 0.1
22:15 8.6 4.9 10.6 87.1 1025.2 0.0 NNE 0.0 WSW 0.0 0.1
22:20 8.6 4.8 10.6 87.1 1025.2 0.0 NNE 0.0 WSW 0.0 0.1
22:25 8.5 4.7 10.6 87.5 1025.2 0.0 NNE 0.0 WSW 0.0 0.1
22:30 8.4 4.7 10.5 87.9 1025.2 0.0 NNE 0.0 WSW 0.0 0.1
22:35 8.3 4.6 10.5 88.2 1025.3 0.0 NNE 0.0 WSW 0.0 0.1
22:40 8.1 4.6 10.4 88.3 1025.3 0.0 NNE 0.0 WSW 0.0 0.1
22:45 8.0 4.5 10.4 89.0 1025.3 0.0 NNE 0.0 WSW 0.0 0.1
22:50 7.9 4.3 10.4 89.4 1025.3 0.0 NNE 0.0 WSW 0.0 0.1
22:55 7.9 4.1 10.3 89.4 1025.3 0.0 NNE 0.0 WSW 0.0 0.1
23:00 7.7 3.9 10.3 89.3 1025.3 0.0 NNE 0.0 WSW 0.0 0.1
23:05 7.6 3.8 10.2 89.4 1025.3 0.0 NNE 0.0 WSW 0.0 0.1
23:10 7.6 3.6 10.1 90.1 1025.3 0.0 NNE 0.0 SE 0.0 0.1
23:15 7.5 3.5 10.1 89.5 1025.4 0.0 NNE 0.0 SE 0.0 0.1
23:20 7.3 3.4 10.0 89.4 1025.4 0.0 NNE 0.0 SE 0.0 0.1
23:25 7.2 3.2 10.0 89.8 1025.4 0.0 NNE 0.0 SE 0.0 0.1
Màxima 18.5 27.3 14.8 95.8 1025.6 15.8 WNW 25.0 WNW 0.0 731.8
Mínima 4.9 1.9 8.4 46.5 1023.7
Total 0.0